createdAt,value
2023-03-16T00:01:13.958Z,3.10
2023-03-16T00:02:46.766Z,3.10
2023-03-16T00:04:18.505Z,3.10
2023-03-16T00:05:53.891Z,3.10
2023-03-16T00:07:26.683Z,3.20
2023-03-16T00:09:00.755Z,3.20
2023-03-16T00:10:33.487Z,3.10
2023-03-16T00:12:05.476Z,3.10
2023-03-16T00:13:38.168Z,3.10
2023-03-16T00:15:11.330Z,3.00
2023-03-16T00:16:44.042Z,3.00
2023-03-16T00:18:16.787Z,3.00
2023-03-16T00:19:51.596Z,3.00
2023-03-16T00:21:24.298Z,3.00
2023-03-16T00:22:56.993Z,3.00
2023-03-16T00:24:31.830Z,3.00
2023-03-16T00:26:06.773Z,2.90
2023-03-16T00:27:39.697Z,2.90
2023-03-16T00:29:12.423Z,2.90
2023-03-16T00:30:47.329Z,2.90
2023-03-16T00:32:22.347Z,2.90
2023-03-16T00:33:55.020Z,2.90
2023-03-16T00:35:27.919Z,2.80
2023-03-16T00:37:00.585Z,2.90
2023-03-16T00:38:36.264Z,2.90
2023-03-16T00:40:13.942Z,2.80
2023-03-16T00:41:46.676Z,2.80
2023-03-16T00:43:19.355Z,2.80
2023-03-16T00:44:57.016Z,2.70
2023-03-16T00:46:29.720Z,2.80
2023-03-16T00:48:01.948Z,2.70
2023-03-16T00:49:35.483Z,2.70
2023-03-16T00:51:10.075Z,2.80
2023-03-16T00:52:43.140Z,2.80
2023-03-16T00:54:14.898Z,2.80
2023-03-16T00:55:48.943Z,2.80
2023-03-16T00:57:24.628Z,2.80
2023-03-16T00:58:58.171Z,2.70
2023-03-16T01:00:30.977Z,2.70
2023-03-16T01:02:03.659Z,2.60
2023-03-16T01:03:36.830Z,2.50
2023-03-16T01:05:10.539Z,2.60
2023-03-16T01:06:43.254Z,2.50
2023-03-16T01:08:16.326Z,2.50
2023-03-16T01:09:48.064Z,2.50
2023-03-16T01:11:24.433Z,2.60
2023-03-16T01:12:57.101Z,2.60
2023-03-16T01:14:28.836Z,2.60
2023-03-16T01:16:02.831Z,2.60
2023-03-16T01:17:35.524Z,2.60
2023-03-16T01:19:08.233Z,2.60
2023-03-16T01:20:43.378Z,2.50
2023-03-16T01:22:15.840Z,2.60
2023-03-16T01:23:48.718Z,2.60
2023-03-16T01:25:21.557Z,2.50
2023-03-16T01:26:55.588Z,2.50
2023-03-16T01:28:31.797Z,2.50
2023-03-16T01:30:06.080Z,2.50
2023-03-16T01:31:38.807Z,2.50
2023-03-16T01:33:11.493Z,2.50
2023-03-16T01:34:44.170Z,2.50
2023-03-16T01:36:18.623Z,2.50
2023-03-16T01:37:51.405Z,2.50
2023-03-16T01:39:23.341Z,2.50
2023-03-16T01:40:56.506Z,2.50
2023-03-16T01:42:30.563Z,2.40
2023-03-16T01:44:03.517Z,2.50
2023-03-16T01:46:18.113Z,2.40
2023-03-16T01:47:50.897Z,2.40
2023-03-16T01:49:26.675Z,2.30
2023-03-16T01:50:59.390Z,2.30
2023-03-16T01:52:36.789Z,2.20
2023-03-16T01:54:15.642Z,2.30
2023-03-16T01:55:49.209Z,2.30
2023-03-16T01:57:24.353Z,2.30
2023-03-16T01:59:00.413Z,2.30
2023-03-16T02:00:33.751Z,2.30
2023-03-16T02:02:08.579Z,2.30
2023-03-16T02:03:42.999Z,2.30
2023-03-16T02:05:20.647Z,2.20
2023-03-16T02:06:54.885Z,2.20
2023-03-16T02:08:29.020Z,2.10
2023-03-16T02:10:03.911Z,2.10
2023-03-16T02:11:36.474Z,2.10
2023-03-16T02:13:09.968Z,2.00
2023-03-16T02:14:44.054Z,2.00
2023-03-16T02:16:19.326Z,2.00
2023-03-16T02:17:52.500Z,2.00
2023-03-16T02:19:35.149Z,2.00
2023-03-16T02:21:16.220Z,2.00
2023-03-16T02:22:53.997Z,1.90
2023-03-16T02:24:27.244Z,1.90
2023-03-16T02:26:04.603Z,1.90
2023-03-16T02:27:42.663Z,1.90
2023-03-16T02:29:27.774Z,1.90
2023-03-16T02:31:02.742Z,1.90
2023-03-16T02:32:36.160Z,1.90
2023-03-16T02:34:10.292Z,1.90
2023-03-16T02:35:43.051Z,1.90
2023-03-16T02:37:15.128Z,1.90
2023-03-16T02:38:48.027Z,1.90
2023-03-16T02:40:24.782Z,1.90
2023-03-16T02:41:57.960Z,1.90
2023-03-16T02:43:33.234Z,2.00
2023-03-16T02:45:07.209Z,1.90
2023-03-16T02:46:43.424Z,2.00
2023-03-16T02:48:22.235Z,1.90
2023-03-16T02:49:54.949Z,1.90
2023-03-16T02:51:27.627Z,1.90
2023-03-16T02:53:00.616Z,1.90
2023-03-16T02:54:33.559Z,1.90
2023-03-16T02:56:05.661Z,1.90
2023-03-16T02:57:38.362Z,1.90
2023-03-16T02:59:12.058Z,1.80
2023-03-16T03:00:45.606Z,1.80
2023-03-16T03:02:19.651Z,1.70
2023-03-16T03:03:52.356Z,1.70
2023-03-16T03:05:25.332Z,1.70
2023-03-16T03:07:03.878Z,1.60
2023-03-16T03:08:36.930Z,1.60
2023-03-16T03:10:10.948Z,1.50
2023-03-16T03:11:43.638Z,1.50
2023-03-16T03:13:16.366Z,1.50
2023-03-16T03:14:48.669Z,1.40
2023-03-16T03:16:21.903Z,1.40
2023-03-16T03:17:56.110Z,1.40
2023-03-16T03:19:28.833Z,1.40
2023-03-16T03:21:00.546Z,1.40
2023-03-16T03:22:33.822Z,1.40
2023-03-16T03:24:07.930Z,1.40
2023-03-16T03:25:40.647Z,1.30
2023-03-16T03:27:12.414Z,1.40
2023-03-16T03:28:46.124Z,1.30
2023-03-16T03:30:20.161Z,1.30
2023-03-16T03:31:52.884Z,1.30
2023-03-16T03:33:27.012Z,1.30
2023-03-16T03:34:59.849Z,1.30
2023-03-16T03:36:32.545Z,1.30
2023-03-16T03:38:05.219Z,1.30
2023-03-16T03:39:37.016Z,1.30
2023-03-16T03:41:09.786Z,1.30
2023-03-16T03:42:42.436Z,1.30
2023-03-16T03:44:15.129Z,1.30
2023-03-16T03:45:47.935Z,1.30
2023-03-16T03:47:20.879Z,1.30
2023-03-16T03:48:54.908Z,1.30
2023-03-16T03:50:27.877Z,1.30
2023-03-16T03:52:02.638Z,1.40
2023-03-16T03:53:35.355Z,1.40
2023-03-16T03:55:08.872Z,1.40
2023-03-16T03:56:41.561Z,1.40
2023-03-16T03:58:14.306Z,1.30
2023-03-16T03:59:46.978Z,1.30
2023-03-16T04:01:18.726Z,1.20
2023-03-16T04:02:51.519Z,1.30
2023-03-16T04:04:25.689Z,1.20
2023-03-16T04:05:58.380Z,1.20
2023-03-16T04:07:31.077Z,1.30
2023-03-16T04:09:03.983Z,1.30
2023-03-16T04:10:36.708Z,1.30
2023-03-16T04:12:09.951Z,1.30
2023-03-16T04:13:42.648Z,1.30
2023-03-16T04:15:15.390Z,1.30
2023-03-16T04:16:48.096Z,1.30
2023-03-16T04:18:19.840Z,1.30
2023-03-16T04:19:53.878Z,1.30
2023-03-16T04:21:26.811Z,1.30
2023-03-16T04:22:59.535Z,1.20
2023-03-16T04:24:34.177Z,1.20
2023-03-16T04:26:06.871Z,1.20
2023-03-16T04:27:39.942Z,1.20
2023-03-16T04:29:14.115Z,1.20
2023-03-16T04:30:46.885Z,1.20
2023-03-16T04:32:18.623Z,1.20
2023-03-16T04:33:54.470Z,1.20
2023-03-16T04:35:28.717Z,1.20
2023-03-16T04:37:02.172Z,1.20
2023-03-16T04:38:35.552Z,1.30
2023-03-16T04:40:15.457Z,1.30
2023-03-16T04:41:48.158Z,1.30
2023-03-16T04:43:21.016Z,1.30
2023-03-16T04:44:53.703Z,1.30
2023-03-16T04:46:27.391Z,1.20
2023-03-16T04:48:00.821Z,1.30
2023-03-16T04:49:32.575Z,1.30
2023-03-16T04:51:07.204Z,1.30
2023-03-16T04:52:39.988Z,1.30
2023-03-16T04:54:12.735Z,1.30
2023-03-16T04:55:45.163Z,1.30
2023-03-16T04:57:19.287Z,1.30
2023-03-16T04:58:51.269Z,1.30
2023-03-16T05:00:24.467Z,1.30
2023-03-16T05:01:57.205Z,1.30
2023-03-16T05:03:29.038Z,1.30
2023-03-16T05:05:01.745Z,1.20
2023-03-16T05:06:35.824Z,1.20
2023-03-16T05:08:10.709Z,1.10
2023-03-16T05:09:43.648Z,1.10
2023-03-16T05:11:16.339Z,1.00
2023-03-16T05:12:48.144Z,1.00
2023-03-16T05:14:20.904Z,1.00
2023-03-16T05:15:54.484Z,0.90
2023-03-16T05:17:27.181Z,0.90
2023-03-16T05:19:00.226Z,1.00
2023-03-16T05:20:32.931Z,1.00
2023-03-16T05:22:06.578Z,1.00
2023-03-16T05:23:39.285Z,1.00
2023-03-16T05:25:14.921Z,1.00
2023-03-16T05:26:47.714Z,1.00
2023-03-16T05:28:20.411Z,1.00
2023-03-16T05:29:52.288Z,0.90
2023-03-16T05:31:26.510Z,0.90
2023-03-16T05:32:59.339Z,0.90
2023-03-16T05:34:32.243Z,0.90
2023-03-16T05:36:05.479Z,0.90
2023-03-16T05:37:39.924Z,0.90
2023-03-16T05:39:13.188Z,0.80
2023-03-16T05:40:46.152Z,0.80
2023-03-16T05:42:19.735Z,0.80
2023-03-16T05:43:53.016Z,0.80
2023-03-16T05:45:26.031Z,0.80
2023-03-16T05:46:58.814Z,0.70
2023-03-16T05:48:31.538Z,0.80
2023-03-16T05:50:04.995Z,0.70
2023-03-16T05:51:37.688Z,0.70
2023-03-16T05:53:11.708Z,0.70
2023-03-16T05:54:44.390Z,0.70
2023-03-16T05:56:17.196Z,0.70
2023-03-16T05:57:49.911Z,0.70
2023-03-16T05:59:22.606Z,0.70
2023-03-16T06:00:55.629Z,0.70
2023-03-16T06:02:28.525Z,0.80
2023-03-16T06:04:02.902Z,0.80
2023-03-16T06:05:35.682Z,0.80
2023-03-16T06:07:07.933Z,0.90
2023-03-16T06:08:42.079Z,0.90
2023-03-16T06:10:14.254Z,0.90
2023-03-16T06:11:46.943Z,1.00
2023-03-16T06:13:19.722Z,1.00
2023-03-16T06:14:51.491Z,1.00
2023-03-16T06:16:24.304Z,1.10
2023-03-16T06:17:57.035Z,1.10
2023-03-16T06:19:29.782Z,1.10
2023-03-16T06:21:02.520Z,1.20
2023-03-16T06:22:35.229Z,1.20
2023-03-16T06:24:09.781Z,1.20
2023-03-16T06:25:43.006Z,1.20
2023-03-16T06:27:15.704Z,1.10
2023-03-16T06:28:49.570Z,1.10
2023-03-16T06:30:22.436Z,1.10
2023-03-16T06:31:55.153Z,1.10
2023-03-16T06:33:28.051Z,1.20
2023-03-16T06:35:02.192Z,1.20
2023-03-16T06:36:34.921Z,1.20
2023-03-16T06:38:07.602Z,1.20
2023-03-16T06:39:41.939Z,1.30
2023-03-16T06:41:15.318Z,1.30
2023-03-16T06:42:48.270Z,1.30
2023-03-16T06:44:21.001Z,1.40
2023-03-16T06:45:53.765Z,1.40
2023-03-16T06:47:27.211Z,1.50
2023-03-16T06:49:00.906Z,1.50
2023-03-16T06:50:33.605Z,1.60
2023-03-16T06:52:06.358Z,1.60
2023-03-16T06:53:39.116Z,1.60
2023-03-16T06:55:14.389Z,1.60
2023-03-16T06:56:47.086Z,1.70
2023-03-16T06:58:19.839Z,1.80
2023-03-16T06:59:52.540Z,1.80
2023-03-16T07:01:25.315Z,1.90
2023-03-16T07:03:00.059Z,1.90
2023-03-16T07:04:34.005Z,1.90
2023-03-16T07:06:08.625Z,2.00
2023-03-16T07:07:42.487Z,2.00
2023-03-16T07:09:15.238Z,2.10
2023-03-16T07:10:50.982Z,2.10
2023-03-16T07:12:23.667Z,2.10
2023-03-16T07:13:56.355Z,2.20
2023-03-16T07:15:29.126Z,2.20
2023-03-16T07:17:02.601Z,2.20
2023-03-16T07:18:37.830Z,2.20
2023-03-16T07:20:12.641Z,2.30
2023-03-16T07:21:45.326Z,2.30
2023-03-16T07:23:18.063Z,2.30
2023-03-16T07:24:55.978Z,2.40
2023-03-16T07:26:30.031Z,2.40
2023-03-16T07:28:03.323Z,2.40
2023-03-16T07:29:36.352Z,2.50
2023-03-16T07:31:10.012Z,2.50
2023-03-16T07:32:43.145Z,2.50
2023-03-16T07:34:16.134Z,2.50
2023-03-16T07:35:48.861Z,2.50
2023-03-16T07:37:25.371Z,2.60
2023-03-16T07:38:58.692Z,2.60
2023-03-16T07:40:32.198Z,2.70
2023-03-16T07:42:06.463Z,2.80
2023-03-16T07:43:39.170Z,2.90
2023-03-16T07:45:14.313Z,3.10
2023-03-16T07:46:47.017Z,3.30
2023-03-16T07:48:20.793Z,3.50
2023-03-16T07:49:53.520Z,3.90
2023-03-16T07:51:26.257Z,4.20
2023-03-16T07:52:58.941Z,4.60
2023-03-16T07:54:31.641Z,4.90
2023-03-16T07:56:04.693Z,5.20
2023-03-16T07:57:39.235Z,5.50
2023-03-16T07:59:12.323Z,5.70
2023-03-16T08:00:45.030Z,5.90
2023-03-16T08:02:19.988Z,6.00
2023-03-16T08:03:53.451Z,6.10
2023-03-16T08:05:27.787Z,6.20
2023-03-16T08:07:02.060Z,6.40
2023-03-16T08:08:35.854Z,6.50
2023-03-16T08:10:09.720Z,6.60
2023-03-16T08:11:42.712Z,6.80
2023-03-16T08:13:17.076Z,7.00
2023-03-16T08:14:49.838Z,7.20
2023-03-16T08:16:23.243Z,7.40
2023-03-16T08:17:55.948Z,7.70
2023-03-16T08:19:28.831Z,7.90
2023-03-16T08:21:01.514Z,8.20
2023-03-16T08:22:36.591Z,8.50
2023-03-16T08:24:09.410Z,8.90
2023-03-16T08:25:42.320Z,9.20
2023-03-16T08:27:16.019Z,9.30
2023-03-16T08:28:52.760Z,9.50
2023-03-16T08:30:26.933Z,9.70
2023-03-16T08:32:00.415Z,9.70
2023-03-16T08:33:33.113Z,9.60
2023-03-16T08:35:06.636Z,9.50
2023-03-16T08:36:39.593Z,9.50
2023-03-16T08:38:12.718Z,9.50
2023-03-16T08:39:45.408Z,9.40
2023-03-16T08:41:18.107Z,9.20
2023-03-16T08:42:51.011Z,9.10
2023-03-16T08:44:26.078Z,9.00
2023-03-16T08:45:59.079Z,9.00
2023-03-16T08:47:32.711Z,8.90
2023-03-16T08:49:06.775Z,8.90
2023-03-16T08:50:40.824Z,9.00
2023-03-16T08:52:13.821Z,9.10
2023-03-16T08:53:46.968Z,9.30
2023-03-16T08:55:19.885Z,9.40
2023-03-16T08:56:52.667Z,9.60
2023-03-16T08:58:25.993Z,9.80
2023-03-16T09:00:00.215Z,10.00
2023-03-16T09:01:33.956Z,9.90
2023-03-16T09:03:07.659Z,9.90
2023-03-16T09:04:40.464Z,9.80
2023-03-16T09:06:15.049Z,9.90
2023-03-16T09:07:48.950Z,9.80
2023-03-16T09:09:22.103Z,9.60
2023-03-16T09:11:00.386Z,9.50
2023-03-16T09:12:35.609Z,9.60
2023-03-16T09:14:08.698Z,9.80
2023-03-16T09:15:42.836Z,9.90
2023-03-16T09:17:15.754Z,9.90
2023-03-16T09:18:48.433Z,10.00
2023-03-16T09:20:25.930Z,10.10
2023-03-16T09:21:59.129Z,10.10
2023-03-16T09:23:33.671Z,10.10
2023-03-16T09:25:08.805Z,10.20
2023-03-16T09:26:42.587Z,10.20
2023-03-16T09:28:15.787Z,10.40
2023-03-16T09:29:49.375Z,10.40
2023-03-16T09:31:23.638Z,10.30
2023-03-16T09:32:56.595Z,10.30
2023-03-16T09:34:30.502Z,10.30
2023-03-16T09:36:04.510Z,10.40
2023-03-16T09:37:44.950Z,10.60
2023-03-16T09:39:19.534Z,10.70
2023-03-16T09:40:58.962Z,10.70
2023-03-16T09:42:37.412Z,10.90
2023-03-16T09:44:29.067Z,11.10
2023-03-16T09:46:09.196Z,11.20
2023-03-16T09:47:45.281Z,11.30
2023-03-16T09:49:21.292Z,11.30
2023-03-16T09:50:55.798Z,11.30
2023-03-16T09:52:36.513Z,11.20
2023-03-16T09:54:19.179Z,11.20
2023-03-16T09:55:56.174Z,11.30
2023-03-16T09:57:34.670Z,11.30
2023-03-16T09:59:12.015Z,11.30
2023-03-16T10:00:52.817Z,11.40
2023-03-16T10:02:48.526Z,11.40
2023-03-16T10:04:33.743Z,11.40
2023-03-16T10:06:11.029Z,11.50
2023-03-16T10:07:54.751Z,11.70
2023-03-16T10:09:34.904Z,11.80
2023-03-16T10:11:23.203Z,11.80
2023-03-16T10:13:00.220Z,12.00
2023-03-16T10:14:41.011Z,12.10
2023-03-16T10:16:19.517Z,12.20
2023-03-16T10:18:00.160Z,12.10
2023-03-16T10:19:38.448Z,12.00
2023-03-16T10:21:15.103Z,12.00
2023-03-16T10:22:50.740Z,12.10
2023-03-16T10:24:37.609Z,12.30
2023-03-16T10:26:15.018Z,12.50
2023-03-16T10:27:48.663Z,12.60
2023-03-16T10:29:21.577Z,12.60
2023-03-16T10:30:56.679Z,12.60
2023-03-16T10:32:34.578Z,12.60
2023-03-16T10:34:10.633Z,12.60
2023-03-16T10:35:48.236Z,12.70
2023-03-16T10:37:21.373Z,12.70
2023-03-16T10:38:58.723Z,12.80
2023-03-16T10:40:33.086Z,12.70
2023-03-16T10:42:11.228Z,12.60
2023-03-16T10:43:44.646Z,12.50
2023-03-16T10:45:28.623Z,12.60
2023-03-16T10:47:03.333Z,12.60
2023-03-16T10:48:36.072Z,12.50
2023-03-16T10:50:17.383Z,12.50
2023-03-16T10:51:51.218Z,12.50
2023-03-16T10:53:27.373Z,12.50
2023-03-16T10:55:02.638Z,12.60
2023-03-16T10:56:37.068Z,12.50
2023-03-16T10:58:10.259Z,12.30
2023-03-16T10:59:50.612Z,12.40
2023-03-16T11:01:26.939Z,12.30
2023-03-16T11:03:01.142Z,12.40
2023-03-16T11:04:34.533Z,12.40
2023-03-16T11:06:20.323Z,12.40
2023-03-16T11:08:02.607Z,12.40
2023-03-16T11:09:37.181Z,12.40
2023-03-16T11:11:13.184Z,12.30
2023-03-16T11:12:49.503Z,12.30
2023-03-16T11:14:27.425Z,12.10
2023-03-16T11:16:05.180Z,12.00
2023-03-16T11:17:41.361Z,11.90
2023-03-16T11:19:20.805Z,11.80
2023-03-16T11:20:55.172Z,11.80
2023-03-16T11:22:30.042Z,11.70
2023-03-16T11:24:05.102Z,11.60
2023-03-16T11:25:46.828Z,11.50
2023-03-16T11:27:26.118Z,11.50
2023-03-16T11:29:03.575Z,11.40
2023-03-16T11:30:40.695Z,11.30
2023-03-16T11:32:20.347Z,11.20
2023-03-16T11:33:55.362Z,11.10
2023-03-16T11:35:49.476Z,11.00
2023-03-16T11:37:37.640Z,11.00
2023-03-16T11:39:18.170Z,11.00
2023-03-16T11:40:58.288Z,10.90
2023-03-16T11:42:35.380Z,10.90
2023-03-16T11:44:15.594Z,10.90
2023-03-16T11:45:53.081Z,11.00
2023-03-16T11:47:56.892Z,10.90
2023-03-16T11:49:56.749Z,10.90
2023-03-16T11:51:42.362Z,10.80
2023-03-16T11:53:24.156Z,10.70
2023-03-16T11:55:09.030Z,10.70
2023-03-16T11:56:47.539Z,10.60
2023-03-16T11:58:35.845Z,10.60
2023-03-16T12:00:25.561Z,10.60
2023-03-16T12:02:17.328Z,10.70
2023-03-16T12:04:05.309Z,10.70
2023-03-16T12:05:48.995Z,10.70
2023-03-16T12:07:35.323Z,10.70
2023-03-16T12:09:40.518Z,10.70
2023-03-16T12:11:19.370Z,10.80
2023-03-16T12:13:07.861Z,10.90
2023-03-16T12:14:45.989Z,11.00
2023-03-16T12:16:22.523Z,11.10
2023-03-16T12:17:58.460Z,11.10
2023-03-16T12:19:41.251Z,11.20
2023-03-16T12:21:18.597Z,11.20
2023-03-16T12:22:54.452Z,11.20
2023-03-16T12:24:32.380Z,11.20
2023-03-16T12:26:05.959Z,11.30
2023-03-16T12:27:41.357Z,11.30
2023-03-16T12:29:28.414Z,11.40
2023-03-16T12:31:10.234Z,11.40
2023-03-16T12:32:47.574Z,11.40
2023-03-16T12:34:27.712Z,11.40
2023-03-16T12:36:04.965Z,11.40
2023-03-16T12:37:45.879Z,11.50
2023-03-16T12:39:25.854Z,11.50
2023-03-16T12:41:18.138Z,11.50
2023-03-16T12:43:01.299Z,11.50
2023-03-16T12:44:40.460Z,11.40
2023-03-16T12:46:18.488Z,11.40
2023-03-16T12:47:59.486Z,11.40
2023-03-16T12:49:34.456Z,11.40
2023-03-16T12:51:07.184Z,11.30
2023-03-16T12:52:44.611Z,11.30
2023-03-16T12:54:22.008Z,11.40
2023-03-16T12:55:56.511Z,11.40
2023-03-16T12:57:31.958Z,11.40
2023-03-16T12:59:07.495Z,11.50
2023-03-16T13:00:42.563Z,11.50
2023-03-16T13:02:18.222Z,11.50
2023-03-16T13:03:59.455Z,11.50
2023-03-16T13:05:34.844Z,11.40
2023-03-16T13:07:11.832Z,11.40
2023-03-16T13:08:49.003Z,11.40
2023-03-16T13:10:22.187Z,11.30
2023-03-16T13:11:55.379Z,11.30
2023-03-16T13:13:29.467Z,11.30
2023-03-16T13:15:02.214Z,11.30
2023-03-16T13:16:37.418Z,11.30
2023-03-16T13:18:23.748Z,11.30
2023-03-16T13:20:08.045Z,11.40
2023-03-16T13:21:43.481Z,11.40
2023-03-16T13:23:25.414Z,11.40
2023-03-16T13:25:12.536Z,11.40
2023-03-16T13:26:47.691Z,11.50
2023-03-16T13:28:22.267Z,11.50
2023-03-16T13:29:59.281Z,11.50
2023-03-16T13:31:38.921Z,11.50
2023-03-16T13:33:20.688Z,11.50
2023-03-16T13:34:58.315Z,11.50
2023-03-16T13:36:33.412Z,11.50
2023-03-16T13:38:06.973Z,11.50
2023-03-16T13:39:40.559Z,11.40
2023-03-16T13:41:15.539Z,11.30
2023-03-16T13:42:52.722Z,11.40
2023-03-16T13:44:26.163Z,11.40
2023-03-16T13:46:01.053Z,11.40
2023-03-16T13:47:33.760Z,11.30
2023-03-16T13:49:06.447Z,11.30
2023-03-16T13:50:41.221Z,11.40
2023-03-16T13:52:20.881Z,11.30
2023-03-16T13:53:54.748Z,11.40
2023-03-16T13:55:33.733Z,11.40
2023-03-16T13:57:11.099Z,11.40
2023-03-16T13:58:48.284Z,11.30
2023-03-16T14:00:24.688Z,11.30
2023-03-16T14:02:01.669Z,11.40
2023-03-16T14:03:37.024Z,11.40
2023-03-16T14:05:12.541Z,11.40
2023-03-16T14:06:54.847Z,11.40
2023-03-16T14:08:27.929Z,11.40
2023-03-16T14:10:00.814Z,11.40
2023-03-16T14:11:33.681Z,11.40
2023-03-16T14:13:10.844Z,11.40
2023-03-16T14:14:46.724Z,11.40
2023-03-16T14:16:20.713Z,11.40
2023-03-16T14:17:56.670Z,11.40
2023-03-16T14:19:35.887Z,11.40
2023-03-16T14:21:11.533Z,11.50
2023-03-16T14:22:44.737Z,11.50
2023-03-16T14:24:30.704Z,11.40
2023-03-16T14:26:05.376Z,11.50
2023-03-16T14:27:46.776Z,11.50
2023-03-16T14:29:24.700Z,11.40
2023-03-16T14:31:05.258Z,11.50
2023-03-16T14:32:38.165Z,11.50
2023-03-16T14:34:28.782Z,11.50
2023-03-16T14:36:11.186Z,11.60
2023-03-16T14:37:44.809Z,11.50
2023-03-16T14:39:21.895Z,11.60
2023-03-16T14:40:57.436Z,11.60
2023-03-16T14:42:31.840Z,11.60
2023-03-16T14:44:05.603Z,11.50
2023-03-16T14:45:38.661Z,11.50
2023-03-16T14:47:20.694Z,11.60
2023-03-16T14:48:53.700Z,11.50
2023-03-16T14:50:27.731Z,11.50
2023-03-16T14:52:03.051Z,11.60
2023-03-16T14:53:35.755Z,11.50
2023-03-16T14:55:14.476Z,11.50
2023-03-16T14:56:49.848Z,11.40
2023-03-16T14:58:23.741Z,11.50
2023-03-16T14:59:56.543Z,11.50
2023-03-16T15:01:29.390Z,11.50
2023-03-16T15:03:06.167Z,11.60
2023-03-16T15:04:38.904Z,11.60
2023-03-16T15:06:13.001Z,11.60
2023-03-16T15:07:46.330Z,11.60
2023-03-16T15:09:34.490Z,11.60
2023-03-16T15:11:07.810Z,11.50
2023-03-16T15:12:41.297Z,11.60
2023-03-16T15:14:36.701Z,11.50
2023-03-16T15:16:12.653Z,11.50
2023-03-16T15:17:46.247Z,11.50
2023-03-16T15:19:18.929Z,11.40
2023-03-16T15:20:53.831Z,11.50
2023-03-16T15:22:31.467Z,11.40
2023-03-16T15:24:04.337Z,11.40
2023-03-16T15:25:39.164Z,11.40
2023-03-16T15:27:20.993Z,11.50
2023-03-16T15:28:54.082Z,11.50
2023-03-16T15:30:28.533Z,11.50
2023-03-16T15:32:01.463Z,11.50
2023-03-16T15:33:34.516Z,11.50
2023-03-16T15:35:08.021Z,11.50
2023-03-16T15:36:40.803Z,11.50
2023-03-16T15:38:17.788Z,11.50
2023-03-16T15:39:50.541Z,11.50
2023-03-16T15:41:24.933Z,11.50
2023-03-16T15:42:58.599Z,11.50
2023-03-16T15:44:31.553Z,11.50
2023-03-16T15:46:05.057Z,11.50
2023-03-16T15:47:37.760Z,11.50
2023-03-16T15:49:10.523Z,11.50
2023-03-16T15:50:48.253Z,11.50
2023-03-16T15:52:27.578Z,11.40
2023-03-16T15:54:04.286Z,11.40
2023-03-16T15:55:39.375Z,11.40
2023-03-16T15:57:12.917Z,11.50
2023-03-16T15:58:47.454Z,11.50
2023-03-16T16:00:33.081Z,11.40
2023-03-16T16:02:27.955Z,11.40
2023-03-16T16:04:00.725Z,11.40
2023-03-16T16:05:34.298Z,11.40
2023-03-16T16:07:10.782Z,11.40
2023-03-16T16:08:43.528Z,11.40
2023-03-16T16:10:18.493Z,11.40
2023-03-16T16:11:51.545Z,11.30
2023-03-16T16:13:37.547Z,11.30
2023-03-16T16:15:21.601Z,11.30
2023-03-16T16:16:55.037Z,11.20
2023-03-16T16:18:31.664Z,11.20
2023-03-16T16:20:18.424Z,11.30
2023-03-16T16:21:51.168Z,11.20
2023-03-16T16:23:24.921Z,11.30
2023-03-16T16:24:58.322Z,11.30
2023-03-16T16:26:54.885Z,11.20
2023-03-16T16:28:31.489Z,11.20
2023-03-16T16:30:15.413Z,11.20
2023-03-16T16:31:48.143Z,11.20
2023-03-16T16:33:22.828Z,11.20
2023-03-16T16:35:04.227Z,11.10
2023-03-16T16:36:37.595Z,11.10
2023-03-16T16:38:10.275Z,11.10
2023-03-16T16:39:42.973Z,11.10
2023-03-16T16:41:25.546Z,11.10
2023-03-16T16:43:05.657Z,11.00
2023-03-16T16:44:38.357Z,11.00
2023-03-16T16:46:15.425Z,11.00
2023-03-16T16:47:51.926Z,11.00
2023-03-16T16:49:27.973Z,10.90
2023-03-16T16:51:01.599Z,10.90
2023-03-16T16:52:34.292Z,10.80
2023-03-16T16:54:16.013Z,10.80
2023-03-16T16:55:48.717Z,10.80
2023-03-16T16:57:21.494Z,10.80
2023-03-16T16:58:56.215Z,10.80
2023-03-16T17:00:29.203Z,10.70
2023-03-16T17:02:03.367Z,10.70
2023-03-16T17:03:36.083Z,10.70
2023-03-16T17:05:16.684Z,10.70
2023-03-16T17:06:51.265Z,10.70
2023-03-16T17:08:24.489Z,10.70
2023-03-16T17:09:57.300Z,10.70
2023-03-16T17:11:32.130Z,10.60
2023-03-16T17:13:05.678Z,10.60
2023-03-16T17:14:39.709Z,10.60
2023-03-16T17:16:16.825Z,10.50
2023-03-16T17:17:50.189Z,10.40
2023-03-16T17:19:25.282Z,10.40
2023-03-16T17:20:58.200Z,10.40
2023-03-16T17:22:30.906Z,10.40
2023-03-16T17:24:04.575Z,10.30
2023-03-16T17:25:37.508Z,10.30
2023-03-16T17:27:14.198Z,10.20
2023-03-16T17:28:52.160Z,10.20
2023-03-16T17:30:28.486Z,10.10
2023-03-16T17:32:02.491Z,10.10
2023-03-16T17:33:35.572Z,10.00
2023-03-16T17:35:15.184Z,10.00
2023-03-16T17:36:48.472Z,10.00
2023-03-16T17:38:23.041Z,9.90
2023-03-16T17:39:57.529Z,9.90
2023-03-16T17:41:32.928Z,9.90
2023-03-16T17:43:12.978Z,9.80
2023-03-16T17:44:47.345Z,9.80
2023-03-16T17:46:24.463Z,9.70
2023-03-16T17:47:57.194Z,9.80
2023-03-16T17:49:30.714Z,9.70
2023-03-16T17:51:03.476Z,9.70
2023-03-16T17:52:37.135Z,9.60
2023-03-16T17:54:09.822Z,9.60
2023-03-16T17:55:43.223Z,9.70
2023-03-16T17:57:18.863Z,9.70
2023-03-16T17:58:56.829Z,9.60
2023-03-16T18:00:32.367Z,9.70
2023-03-16T18:02:24.689Z,9.60
2023-03-16T18:03:58.043Z,9.60
2023-03-16T18:05:33.145Z,9.60
2023-03-16T18:07:09.552Z,9.60
2023-03-16T18:08:42.247Z,9.50
2023-03-16T18:10:15.722Z,9.50
2023-03-16T18:11:50.311Z,9.50
2023-03-16T18:13:26.764Z,9.50
2023-03-16T18:14:59.458Z,9.40
2023-03-16T18:16:32.308Z,9.40
2023-03-16T18:18:08.134Z,9.30
2023-03-16T18:19:40.021Z,9.30
2023-03-16T18:21:19.087Z,9.30
2023-03-16T18:22:51.762Z,9.30
2023-03-16T18:24:26.605Z,9.20
2023-03-16T18:26:02.039Z,9.20
2023-03-16T18:27:34.720Z,9.20
2023-03-16T18:29:07.394Z,9.10
2023-03-16T18:30:42.223Z,9.10
2023-03-16T18:32:21.785Z,9.10
2023-03-16T18:33:57.526Z,9.00
2023-03-16T18:35:30.973Z,9.00
2023-03-16T18:37:06.115Z,8.90
2023-03-16T18:38:41.278Z,8.90
2023-03-16T18:40:17.369Z,8.80
2023-03-16T18:41:50.940Z,8.80
2023-03-16T18:43:27.243Z,8.80
2023-03-16T18:45:00.848Z,8.70
2023-03-16T18:46:35.771Z,8.70
2023-03-16T18:48:20.575Z,8.70
2023-03-16T18:49:54.589Z,8.70
2023-03-16T18:51:28.036Z,8.60
2023-03-16T18:53:00.747Z,8.60
2023-03-16T18:54:36.240Z,8.60
2023-03-16T18:56:18.037Z,8.60
2023-03-16T18:57:56.122Z,8.50
2023-03-16T18:59:28.839Z,8.50
2023-03-16T19:01:02.012Z,8.50
2023-03-16T19:02:38.739Z,8.40
2023-03-16T19:04:21.408Z,8.50
2023-03-16T19:05:56.937Z,8.40
2023-03-16T19:07:33.510Z,8.40
2023-03-16T19:09:08.853Z,8.40
2023-03-16T19:10:46.952Z,8.50
2023-03-16T19:12:21.813Z,8.40
2023-03-16T19:13:54.817Z,8.40
2023-03-16T19:15:30.454Z,8.40
2023-03-16T19:17:03.387Z,8.40
2023-03-16T19:18:41.910Z,8.30
2023-03-16T19:20:17.300Z,8.40
2023-03-16T19:21:53.589Z,8.40
2023-03-16T19:23:29.128Z,8.30
2023-03-16T19:25:02.200Z,8.30
2023-03-16T19:26:37.120Z,8.20
2023-03-16T19:28:14.824Z,8.20
2023-03-16T19:29:48.649Z,8.20
2023-03-16T19:31:26.355Z,8.20
2023-03-16T19:33:00.263Z,8.20
2023-03-16T19:34:33.023Z,8.10
2023-03-16T19:36:07.669Z,8.10
2023-03-16T19:37:40.759Z,8.10
2023-03-16T19:39:14.764Z,8.10
2023-03-16T19:40:48.742Z,8.10
2023-03-16T19:42:26.592Z,8.10
2023-03-16T19:44:04.701Z,8.00
2023-03-16T19:45:38.886Z,8.00
2023-03-16T19:47:24.634Z,7.90
2023-03-16T19:48:57.673Z,7.90
2023-03-16T19:50:30.532Z,7.90
2023-03-16T19:52:03.306Z,7.80
2023-03-16T19:53:37.327Z,7.80
2023-03-16T19:55:13.921Z,7.80
2023-03-16T19:56:46.655Z,7.80
2023-03-16T19:58:24.507Z,7.80
2023-03-16T19:59:58.505Z,7.80
2023-03-16T20:01:33.478Z,7.80
2023-03-16T20:03:06.450Z,7.80
2023-03-16T20:04:39.180Z,7.80
2023-03-16T20:06:14.509Z,7.70
2023-03-16T20:07:47.551Z,7.70
2023-03-16T20:09:22.078Z,7.70
2023-03-16T20:10:59.433Z,7.60
2023-03-16T20:12:32.718Z,7.70
2023-03-16T20:14:05.946Z,7.60
2023-03-16T20:15:38.864Z,7.60
2023-03-16T20:17:13.076Z,7.60
2023-03-16T20:18:47.031Z,7.50
2023-03-16T20:20:25.466Z,7.40
2023-03-16T20:21:58.203Z,7.50
2023-03-16T20:23:31.217Z,7.40
2023-03-16T20:25:06.281Z,7.40
2023-03-16T20:26:39.179Z,7.40
2023-03-16T20:28:18.609Z,7.40
2023-03-16T20:29:51.627Z,7.40
2023-03-16T20:31:26.664Z,7.30
2023-03-16T20:32:59.440Z,7.30
2023-03-16T20:34:33.426Z,7.30
2023-03-16T20:36:07.672Z,7.30
2023-03-16T20:37:40.533Z,7.20
2023-03-16T20:39:13.256Z,7.20
2023-03-16T20:40:49.189Z,7.20
2023-03-16T20:42:24.575Z,7.20
2023-03-16T20:44:00.206Z,7.10
2023-03-16T20:45:33.501Z,7.10
2023-03-16T20:47:07.026Z,7.10
2023-03-16T20:48:39.718Z,7.10
2023-03-16T20:50:24.208Z,7.10
2023-03-16T20:51:56.912Z,7.10
2023-03-16T20:53:29.604Z,7.10
2023-03-16T20:55:02.517Z,7.10